Time;durP1;ratioP1;P1;durP2;ratioP2;P2;SDS_P1;SDS_P2;PMS_P1;PMS_P2;Temp;Humidity;BMP_temperature;BMP_pressure;BME280_temperature;BME280_humidity;BME280_pressure;Samples;Min_cycle;Max_cycle;Signal;HPM_P1;HPM_P2
2022/10/21 00:00:34;;;;;;;32.15;20.05;;;15.30;99.90;;;;;;4948870;28;20462;-63
2022/10/21 00:03:00;;;;;;;29.35;18.42;;;15.10;99.90;;;;;;4964025;28;20047;-62
2022/10/21 00:05:25;;;;;;;26.13;16.55;;;14.20;99.90;;;;;;4956880;28;20038;-63
2022/10/21 00:07:51;;;;;;;28.50;17.80;;;14.20;99.90;;;;;;4954715;28;20039;-62
2022/10/21 00:10:16;;;;;;;32.72;19.40;;;15.30;99.90;;;;;;4963880;28;20140;-63
2022/10/21 00:12:42;;;;;;;29.45;19.85;;;14.30;99.90;;;;;;4966031;28;20030;-63
2022/10/21 00:15:09;;;;;;;31.55;18.02;;;16.20;99.90;;;;;;4968600;28;20035;-63
2022/10/21 00:17:39;;;;;;;25.08;17.65;;;14.50;99.90;;;;;;4942802;28;20531;-64
2022/10/21 00:20:07;;;;;;;27.52;17.48;;;15.50;99.90;;;;;;4969522;28;20492;-63
2022/10/21 00:22:32;;;;;;;30.13;19.00;;;14.70;99.90;;;;;;4973670;28;20059;-63
2022/10/21 00:24:58;;;;;;;29.63;16.55;;;14.00;99.90;;;;;;4973817;28;20449;-62
2022/10/21 00:27:24;;;;;;;25.00;17.10;;;14.00;99.90;;;;;;4952922;28;20061;-63
2022/10/21 00:29:49;;;;;;;27.92;16.45;;;15.00;99.90;;;;;;4961584;28;20042;-62
2022/10/21 00:32:15;;;;;;;27.05;16.60;;;14.40;99.90;;;;;;4972206;28;20038;-62
2022/10/21 00:34:42;;;;;;;29.92;15.63;;;14.00;99.90;;;;;;4971880;28;20089;-63
2022/10/21 00:37:09;;;;;;;33.45;18.15;;;14.10;99.90;;;;;;4964925;28;20042;-63
2022/10/21 00:39:35;;;;;;;30.02;17.25;;;13.80;99.90;;;;;;4973405;28;20059;-62
2022/10/21 00:42:02;;;;;;;25.42;16.50;;;13.80;99.90;;;;;;4973394;28;20065;-63
2022/10/21 00:44:30;;;;;;;30.65;19.40;;;15.80;99.90;;;;;;4954519;28;20449;-62
2022/10/21 00:47:06;;;;;;;24.50;15.93;;;15.80;99.90;;;;;;4967976;28;20408;-63
2022/10/21 00:50:04;;;;;;;33.53;16.75;;;14.10;99.90;;;;;;4938069;29;20039;-63
2022/10/21 00:52:32;;;;;;;27.08;17.13;;;13.70;99.90;;;;;;4946351;28;20078;-62
2022/10/21 00:55:03;;;;;;;30.77;17.10;;;14.20;99.90;;;;;;4967105;28;20039;-62
2022/10/21 00:57:31;;;;;;;25.63;16.63;;;15.40;99.90;;;;;;4964465;28;20050;-62
2022/10/21 01:00:00;;;;;;;26.65;18.00;;;15.30;99.90;;;;;;4935271;28;20074;-63
2022/10/21 01:02:26;;;;;;;27.38;18.98;;;15.10;99.90;;;;;;4970968;28;20038;-63
2022/10/21 01:04:57;;;;;;;24.98;16.42;;;14.10;99.90;;;;;;4956065;28;20042;-63
2022/10/21 01:07:23;;;;;;;27.63;16.63;;;15.80;99.90;;;;;;4971414;28;20046;-63
2022/10/21 01:09:48;;;;;;;31.83;18.40;;;14.90;99.90;;;;;;4970581;28;20045;-63
2022/10/21 01:12:24;;;;;;;23.02;15.70;;;14.80;99.90;;;;;;4956226;28;20050;-63
2022/10/21 01:15:04;;;;;;;27.30;16.85;;;15.60;99.90;;;;;;4972091;28;20043;-64
2022/10/21 01:17:51;;;;;;;27.83;17.67;;;15.50;99.90;;;;;;4949181;28;20059;-63
2022/10/21 01:20:44;;;;;;;30.75;17.23;;;15.40;99.90;;;;;;4949667;28;20063;-63
2022/10/21 01:23:35;;;;;;;28.77;17.55;;;13.50;99.90;;;;;;4972958;28;20485;-62
2022/10/21 01:26:19;;;;;;;40.80;20.02;;;14.80;99.90;;;;;;4927133;28;20081;-63
2022/10/21 01:29:31;;;;;;;28.92;17.98;;;15.40;99.90;;;;;;4949700;28;21489;-62
2022/10/21 01:32:22;;;;;;;29.05;17.92;;;14.10;99.90;;;;;;4971851;28;20428;-63
2022/10/21 01:35:22;;;;;;;36.28;20.15;;;15.60;99.90;;;;;;4933422;28;20050;-62
2022/10/21 01:38:21;;;;;;;28.02;18.95;;;14.40;99.90;;;;;;4955331;28;20046;-62
2022/10/21 01:40:57;;;;;;;31.83;18.30;;;14.10;99.90;;;;;;4965253;28;20038;-63
2022/10/21 01:43:33;;;;;;;28.90;18.17;;;15.10;99.90;;;;;;4972182;28;20038;-62
2022/10/21 01:46:25;;;;;;;29.60;18.23;;;14.80;99.90;;;;;;4963815;28;20043;-62
2022/10/21 01:48:56;;;;;;;30.13;17.95;;;15.20;99.90;;;;;;4954543;28;20129;-62
2022/10/21 01:51:25;;;;;;;28.77;16.67;;;13.70;99.90;;;;;;4970665;28;20522;-63
2022/10/21 01:54:03;;;;;;;25.63;17.92;;;13.90;99.90;;;;;;4952866;28;20030;-63
2022/10/21 01:56:30;;;;;;;32.50;18.70;;;15.30;99.90;;;;;;4968048;28;20042;-62
2022/10/21 01:58:57;;;;;;;29.30;18.50;;;13.70;99.90;;;;;;4965400;28;20551;-62
2022/10/21 02:01:23;;;;;;;32.47;20.95;;;13.80;99.90;;;;;;4969324;28;20051;-64
2022/10/21 02:03:55;;;;;;;32.55;18.90;;;15.40;99.90;;;;;;4972065;28;20390;-63
2022/10/21 02:06:21;;;;;;;38.92;20.88;;;13.90;99.90;;;;;;4954707;28;20042;-63
2022/10/21 02:08:47;;;;;;;28.15;19.20;;;15.90;99.90;;;;;;4955946;28;20039;-63
2022/10/21 02:11:14;;;;;;;27.65;20.52;;;15.90;99.90;;;;;;4969301;28;20047;-63
2022/10/21 02:13:51;;;;;;;36.58;20.73;;;16.00;99.90;;;;;;4952475;28;20058;-63
2022/10/21 02:16:19;;;;;;;33.08;22.02;;;15.30;99.90;;;;;;4970803;28;20070;-63
2022/10/21 02:18:45;;;;;;;32.88;21.05;;;16.20;99.90;;;;;;4963100;28;20047;-63
2022/10/21 02:21:17;;;;;;;37.03;21.15;;;16.20;99.90;;;;;;4969632;28;20065;-64
2022/10/21 02:23:51;;;;;;;41.92;22.48;;;16.10;99.90;;;;;;4970466;28;20037;-63
2022/10/21 02:26:17;;;;;;;30.65;21.08;;;14.90;99.90;;;;;;4954169;28;20133;-63
2022/10/21 02:28:43;;;;;;;36.47;22.52;;;14.70;99.90;;;;;;4949673;28;20114;-64
2022/10/21 02:31:20;;;;;;;36.80;21.27;;;14.60;99.90;;;;;;4970317;28;20054;-63
2022/10/21 02:34:09;;;;;;;35.22;22.60;;;16.70;99.90;;;;;;4975442;28;20456;-63
2022/10/21 02:37:04;;;;;;;36.45;21.15;;;16.30;99.90;;;;;;4966906;28;20086;-63
2022/10/21 02:39:42;;;;;;;35.45;21.42;;;16.50;99.90;;;;;;4943578;28;20456;-63
2022/10/21 02:42:13;;;;;;;39.67;22.92;;;14.90;99.90;;;;;;4952363;28;20062;-63
2022/10/21 02:44:39;;;;;;;41.05;22.42;;;15.50;99.90;;;;;;4973722;28;20096;-63
2022/10/21 02:47:04;;;;;;;36.08;22.35;;;16.40;99.90;;;;;;4976991;28;20436;-63
2022/10/21 02:49:30;;;;;;;33.92;21.60;;;15.00;99.90;;;;;;4945649;28;20378;-63
2022/10/21 02:51:55;;;;;;;25.83;17.00;;;14.90;99.90;;;;;;4971962;28;20081;-63
2022/10/21 02:54:21;;;;;;;33.80;18.67;;;16.40;99.90;;;;;;4976966;28;20043;-63
2022/10/21 02:56:47;;;;;;;30.02;19.58;;;14.90;99.90;;;;;;4976161;28;20043;-64
2022/10/21 02:59:12;;;;;;;34.30;21.52;;;14.90;99.90;;;;;;4977041;28;20043;-63
2022/10/21 03:01:38;;;;;;;35.58;21.92;;;16.50;99.90;;;;;;4974672;28;20034;-63
2022/10/21 03:04:04;;;;;;;33.38;21.20;;;16.30;99.90;;;;;;4968880;28;20046;-63
2022/10/21 03:06:29;;;;;;;30.83;20.27;;;15.10;99.90;;;;;;4977157;28;20126;-63
2022/10/21 03:08:55;;;;;;;36.97;22.13;;;15.50;99.90;;;;;;4956967;28;20405;-63
2022/10/21 03:11:21;;;;;;;35.58;22.10;;;16.60;99.90;;;;;;4975770;28;20181;-63
2022/10/21 03:13:46;;;;;;;35.67;20.80;;;15.60;99.90;;;;;;4959211;28;20499;-64
2022/10/21 03:16:12;;;;;;;32.53;21.02;;;16.00;99.90;;;;;;4969881;28;20159;-63
2022/10/21 03:18:37;;;;;;;34.45;19.33;;;15.30;99.90;;;;;;4971047;28;20069;-63
2022/10/21 03:21:03;;;;;;;31.27;20.35;;;16.70;99.90;;;;;;4948731;28;20500;-63
2022/10/21 03:23:28;;;;;;;41.30;22.00;;;14.60;99.90;;;;;;4962392;28;20038;-63
2022/10/21 03:25:54;;;;;;;41.40;22.73;;;16.40;99.90;;;;;;4960738;28;20038;-62
2022/10/21 03:28:19;;;;;;;37.60;21.92;;;14.40;99.90;;;;;;4954970;28;20073;-63
2022/10/21 03:30:45;;;;;;;41.10;22.80;;;15.00;99.90;;;;;;4956020;28;20097;-64
2022/10/21 03:33:11;;;;;;;36.65;21.30;;;15.30;99.90;;;;;;4969583;28;20035;-63
2022/10/21 03:35:36;;;;;;;37.75;21.60;;;14.60;99.90;;;;;;4954739;28;20125;-63
2022/10/21 03:38:02;;;;;;;34.58;22.20;;;15.20;99.90;;;;;;4977657;28;20399;-64
2022/10/21 03:40:29;;;;;;;39.08;22.30;;;14.90;99.90;;;;;;4968774;28;20105;-63
2022/10/21 03:42:58;;;;;;;30.35;19.73;;;15.80;99.90;;;;;;4976139;28;20055;-64
2022/10/21 03:45:24;;;;;;;25.83;16.65;;;14.90;99.90;;;;;;4955605;28;20057;-63
2022/10/21 03:47:51;;;;;;;29.85;18.05;;;15.10;99.90;;;;;;4970599;28;20035;-63
2022/10/21 03:50:17;;;;;;;35.00;19.02;;;14.80;99.90;;;;;;4971287;28;20126;-63
2022/10/21 03:52:43;;;;;;;35.80;20.55;;;16.70;99.90;;;;;;4947508;28;20038;-63
2022/10/21 03:55:09;;;;;;;32.03;19.58;;;15.20;99.90;;;;;;4949791;28;20098;-63
2022/10/21 03:57:35;;;;;;;29.80;17.80;;;15.20;99.90;;;;;;4968904;28;20492;-63
2022/10/21 04:00:00;;;;;;;28.55;17.27;;;15.60;99.90;;;;;;4963290;28;20691;-63
2022/10/21 04:02:26;;;;;;;33.10;18.90;;;17.10;99.90;;;;;;4968783;28;20043;-63
2022/10/21 04:04:51;;;;;;;37.00;19.98;;;15.40;99.90;;;;;;4972984;28;20416;-63
2022/10/21 04:07:17;;;;;;;32.97;21.73;;;17.20;99.90;;;;;;4967680;28;20054;-64
2022/10/21 04:09:42;;;;;;;27.23;19.40;;;15.20;99.90;;;;;;4971485;28;20047;-64
2022/10/21 04:12:08;;;;;;;36.28;21.33;;;15.60;99.90;;;;;;4959419;28;20097;-63
2022/10/21 04:14:34;;;;;;;29.30;19.73;;;17.30;99.90;;;;;;4970581;28;20031;-63
2022/10/21 04:16:59;;;;;;;35.80;21.05;;;15.90;99.90;;;;;;4974159;28;20089;-63
2022/10/21 04:19:25;;;;;;;36.25;20.05;;;15.10;99.90;;;;;;4971872;28;20046;-63
2022/10/21 04:21:51;;;;;;;38.33;21.50;;;15.10;99.90;;;;;;4967037;28;20118;-63
2022/10/21 04:24:16;;;;;;;30.08;20.60;;;17.40;99.90;;;;;;4955339;28;20173;-64
2022/10/21 04:26:42;;;;;;;36.80;19.95;;;15.20;99.90;;;;;;4973131;28;20039;-64
2022/10/21 04:29:08;;;;;;;28.35;18.83;;;15.80;99.90;;;;;;4961226;28;20141;-63
2022/10/21 04:31:33;;;;;;;28.60;19.55;;;15.30;99.90;;;;;;4954477;28;20408;-65
2022/10/21 04:33:59;;;;;;;31.50;18.70;;;15.60;99.90;;;;;;4940455;28;20043;-65
2022/10/21 04:36:25;;;;;;;26.70;18.90;;;17.50;99.90;;;;;;4968689;28;20505;-64
2022/10/21 04:38:50;;;;;;;32.38;19.30;;;17.20;99.90;;;;;;4953703;28;20039;-63
2022/10/21 04:41:16;;;;;;;30.50;20.83;;;15.90;99.90;;;;;;4956712;28;20054;-63
2022/10/21 04:43:41;;;;;;;33.75;19.23;;;17.70;99.90;;;;;;4956851;28;20055;-64
2022/10/21 04:46:13;;;;;;;37.92;22.40;;;17.10;99.90;;;;;;4970176;28;20039;-64
2022/10/21 04:48:39;;;;;;;43.22;21.67;;;16.50;99.90;;;;;;4966934;28;20039;-64
2022/10/21 04:51:05;;;;;;;42.30;22.73;;;16.40;99.90;;;;;;4968766;28;20046;-64
2022/10/21 04:53:31;;;;;;;33.60;20.50;;;15.90;99.90;;;;;;4958160;28;20039;-63
2022/10/21 04:55:57;;;;;;;38.10;21.50;;;16.40;99.90;;;;;;4960186;28;20035;-63
2022/10/21 04:58:22;;;;;;;36.20;20.45;;;15.60;99.90;;;;;;4952036;28;20050;-64
2022/10/21 05:00:49;;;;;;;37.10;21.27;;;17.70;99.90;;;;;;4971750;28;20555;-63
2022/10/21 05:03:15;;;;;;;37.58;21.95;;;15.60;99.90;;;;;;4943541;29;20165;-63
2022/10/21 05:05:40;;;;;;;33.15;21.00;;;16.80;99.90;;;;;;4961232;28;20449;-64
2022/10/21 05:08:06;;;;;;;40.50;22.60;;;17.20;99.90;;;;;;4961554;28;20440;-63
2022/10/21 05:10:31;;;;;;;39.83;22.38;;;17.10;99.90;;;;;;4954178;28;20090;-64
2022/10/21 05:12:57;;;;;;;38.03;21.85;;;16.40;99.90;;;;;;4940297;29;20046;-63
2022/10/21 05:15:24;;;;;;;23.27;16.75;;;17.00;99.90;;;;;;4970629;28;20397;-64
2022/10/21 05:17:51;;;;;;;37.28;21.98;;;17.90;99.90;;;;;;4970526;28;20101;-64
2022/10/21 05:20:16;;;;;;;24.73;16.33;;;15.50;99.90;;;;;;4963797;28;20058;-63
2022/10/21 05:22:42;;;;;;;29.80;18.70;;;15.90;99.90;;;;;;4970919;28;20046;-63
2022/10/21 05:25:08;;;;;;;29.17;19.13;;;16.20;99.90;;;;;;4971647;28;20051;-64
2022/10/21 05:27:34;;;;;;;35.28;17.23;;;16.20;99.90;;;;;;4954944;28;20046;-64
2022/10/21 05:29:59;;;;;;;33.05;20.33;;;17.90;99.90;;;;;;4955204;28;20068;-64
2022/10/21 05:32:25;;;;;;;34.58;22.98;;;16.00;99.90;;;;;;4969718;28;20089;-63
2022/10/21 05:34:50;;;;;;;39.92;23.52;;;16.70;99.90;;;;;;4962454;28;20507;-64
2022/10/21 05:37:16;;;;;;;40.92;23.38;;;16.20;99.90;;;;;;4963077;28;20419;-64
2022/10/21 05:39:42;;;;;;;37.70;23.02;;;16.80;99.90;;;;;;4964937;28;20038;-65
2022/10/21 05:42:07;;;;;;;35.75;20.88;;;16.10;99.90;;;;;;4971576;28;20096;-63
2022/10/21 05:44:33;;;;;;;41.78;23.20;;;16.90;99.90;;;;;;4953880;28;20031;-66
2022/10/21 05:46:58;;;;;;;45.22;25.23;;;18.00;99.90;;;;;;4965736;28;20459;-63
2022/10/21 05:49:24;;;;;;;42.58;24.58;;;16.50;99.90;;;;;;4965394;28;20429;-64
2022/10/21 05:51:49;;;;;;;40.22;22.75;;;17.80;99.90;;;;;;4950538;28;20447;-63
2022/10/21 05:54:15;;;;;;;45.90;24.23;;;15.80;99.90;;;;;;4967691;28;20519;-64
2022/10/21 05:56:41;;;;;;;51.83;24.13;;;17.80;99.90;;;;;;4956592;28;20065;-64
2022/10/21 05:59:08;;;;;;;36.05;21.48;;;16.00;99.90;;;;;;4946624;29;20043;-64
2022/10/21 06:01:33;;;;;;;42.33;21.92;;;15.50;99.90;;;;;;4948669;28;20046;-63
2022/10/21 06:03:59;;;;;;;41.92;23.63;;;16.00;99.90;;;;;;4950221;28;20113;-64
2022/10/21 06:06:24;;;;;;;35.30;22.70;;;15.30;99.90;;;;;;4942339;28;20102;-64
2022/10/21 06:08:50;;;;;;;46.38;24.33;;;17.40;99.90;;;;;;4961145;28;20038;-64
2022/10/21 06:11:18;;;;;;;42.28;22.50;;;15.30;99.90;;;;;;4944632;28;20047;-64
2022/10/21 06:13:44;;;;;;;39.92;22.88;;;15.30;99.90;;;;;;4962091;28;20045;-63
2022/10/21 06:16:10;;;;;;;37.90;21.77;;;15.60;99.90;;;;;;4946838;28;20403;-64
2022/10/21 06:18:36;;;;;;;38.47;22.35;;;16.30;99.90;;;;;;4948855;28;20094;-63
2022/10/21 06:21:01;;;;;;;46.90;23.85;;;15.10;99.90;;;;;;4962169;28;20075;-63
2022/10/21 06:23:27;;;;;;;40.55;22.45;;;15.30;99.90;;;;;;4959590;28;20038;-64
2022/10/21 06:25:57;;;;;;;43.70;24.85;;;17.40;99.90;;;;;;4950802;28;20062;-64
2022/10/21 06:28:23;;;;;;;35.03;20.33;;;15.60;99.90;;;;;;4953012;28;20047;-64
2022/10/21 06:30:49;;;;;;;32.38;20.23;;;17.20;99.90;;;;;;4938104;29;20040;-63
2022/10/21 06:33:14;;;;;;;34.15;21.48;;;17.00;99.90;;;;;;4965024;28;20035;-63
2022/10/21 06:35:40;;;;;;;31.23;19.10;;;17.60;99.90;;;;;;4972738;28;20432;-64
2022/10/21 06:38:05;;;;;;;37.65;21.75;;;16.00;99.90;;;;;;4955511;28;20138;-63
2022/10/21 06:40:31;;;;;;;35.97;20.65;;;17.20;99.90;;;;;;4962238;28;20038;-63
2022/10/21 06:42:56;;;;;;;38.88;22.50;;;17.30;99.90;;;;;;4971140;28;20045;-63
2022/10/21 06:45:22;;;;;;;35.45;22.13;;;17.30;99.90;;;;;;4958131;28;20077;-63
2022/10/21 06:47:47;;;;;;;45.97;24.02;;;17.00;99.90;;;;;;4964534;28;20039;-63
2022/10/21 06:50:13;;;;;;;41.80;23.92;;;17.30;99.90;;;;;;4947099;28;20051;-63
2022/10/21 06:52:40;;;;;;;44.80;24.80;;;15.50;99.90;;;;;;4947347;28;20066;-64
2022/10/21 06:55:06;;;;;;;37.95;22.20;;;16.80;99.90;;;;;;4946625;28;20501;-64
2022/10/21 06:57:32;;;;;;;34.60;20.25;;;16.50;99.90;;;;;;4958973;28;20039;-63
2022/10/21 06:59:57;;;;;;;39.30;21.30;;;17.00;99.90;;;;;;4962085;28;20515;-63
2022/10/21 07:02:23;;;;;;;40.80;22.77;;;15.60;99.90;;;;;;4961218;28;20047;-63
2022/10/21 07:04:51;;;;;;;47.28;23.30;;;17.20;99.90;;;;;;4963510;28;20050;-64
2022/10/21 07:07:17;;;;;;;47.53;24.08;;;17.00;99.90;;;;;;4942391;28;20057;-64
2022/10/21 07:09:42;;;;;;;41.33;23.38;;;15.00;99.90;;;;;;4963294;28;20039;-64
2022/10/21 07:12:08;;;;;;;45.80;22.77;;;16.50;99.90;;;;;;4949734;28;20424;-63
2022/10/21 07:14:33;;;;;;;41.22;23.38;;;15.90;99.90;;;;;;4953640;28;20126;-63
2022/10/21 07:16:59;;;;;;;51.97;24.42;;;17.00;99.90;;;;;;4967169;28;20492;-64
2022/10/21 07:19:24;;;;;;;36.05;22.17;;;15.40;99.90;;;;;;4947375;28;20373;-64
2022/10/21 07:21:50;;;;;;;35.30;23.83;;;15.60;99.90;;;;;;4952077;28;20043;-64
2022/10/21 07:24:16;;;;;;;37.05;22.00;;;15.50;99.90;;;;;;4949302;28;20047;-65
2022/10/21 07:26:42;;;;;;;45.70;23.30;;;16.10;99.90;;;;;;4954923;28;20041;-64
2022/10/21 07:29:07;;;;;;;42.08;24.48;;;17.50;99.90;;;;;;4947280;28;20432;-64
2022/10/21 07:31:36;;;;;;;46.15;24.48;;;15.50;99.90;;;;;;4957338;28;20102;-64
2022/10/21 07:34:03;;;;;;;47.75;23.73;;;17.10;99.90;;;;;;4947508;28;20069;-64
2022/10/21 07:36:32;;;;;;;41.65;23.85;;;18.00;99.90;;;;;;4974915;28;20035;-63
2022/10/21 07:39:01;;;;;;;37.65;22.95;;;16.40;99.90;;;;;;4961333;28;20038;-64
2022/10/21 07:41:33;;;;;;;36.20;21.38;;;17.50;99.90;;;;;;4949243;28;20043;-65
2022/10/21 07:43:59;;;;;;;40.17;23.10;;;15.90;99.90;;;;;;4963087;28;20039;-63
2022/10/21 07:46:25;;;;;;;34.13;22.33;;;17.30;99.90;;;;;;4966137;28;20039;-64
2022/10/21 07:48:51;;;;;;;40.42;21.35;;;17.50;99.90;;;;;;4954206;29;20042;-64
2022/10/21 07:51:19;;;;;;;39.97;22.65;;;18.20;99.90;;;;;;4946043;28;20123;-66
2022/10/21 07:53:45;;;;;;;34.72;19.45;;;17.20;99.90;;;;;;4948322;28;20070;-64
2022/10/21 07:56:18;;;;;;;38.25;22.17;;;16.70;99.90;;;;;;4955280;28;20034;-63
2022/10/21 07:58:45;;;;;;;37.13;21.83;;;16.30;99.90;;;;;;4951038;28;20054;-64
2022/10/21 08:01:12;;;;;;;33.47;21.15;;;16.50;99.90;;;;;;4933258;28;20049;-65
2022/10/21 08:03:38;;;;;;;27.48;17.77;;;17.40;99.90;;;;;;4944152;28;20039;-64
2022/10/21 08:06:05;;;;;;;31.95;20.30;;;18.40;99.90;;;;;;4947349;28;20075;-64
2022/10/21 08:08:32;;;;;;;29.48;18.55;;;16.70;99.90;;;;;;4968030;28;20078;-64
2022/10/21 08:10:57;;;;;;;29.95;19.85;;;18.70;99.90;;;;;;4938995;28;20089;-64
2022/10/21 08:13:23;;;;;;;31.05;19.60;;;17.70;99.90;;;;;;4945041;29;20051;-64
2022/10/21 08:15:51;;;;;;;29.27;19.48;;;17.40;99.90;;;;;;4939468;29;20062;-65
2022/10/21 08:18:17;;;;;;;32.60;19.80;;;17.80;99.90;;;;;;4939040;29;20055;-63
2022/10/21 08:20:44;;;;;;;32.10;18.73;;;17.10;99.90;;;;;;4955826;28;20105;-63
2022/10/21 08:23:11;;;;;;;36.95;20.63;;;17.80;99.90;;;;;;4955601;28;20421;-64
2022/10/21 08:25:37;;;;;;;31.50;20.45;;;18.60;99.90;;;;;;4967959;28;20042;-63
2022/10/21 08:28:04;;;;;;;32.38;20.05;;;17.00;99.90;;;;;;4957554;28;20077;-63
2022/10/21 08:30:30;;;;;;;33.13;20.88;;;17.50;99.90;;;;;;4954720;28;20500;-64
2022/10/21 08:33:00;;;;;;;32.17;18.23;;;17.90;99.90;;;;;;4962467;28;20043;-64
2022/10/21 08:35:29;;;;;;;32.67;19.35;;;16.70;99.90;;;;;;4944217;28;20058;-64
2022/10/21 08:37:55;;;;;;;29.58;19.25;;;17.50;99.90;;;;;;4954645;28;20059;-64
2022/10/21 08:40:21;;;;;;;27.17;17.75;;;16.90;99.90;;;;;;4950916;28;20039;-64
2022/10/21 08:42:47;;;;;;;26.75;18.45;;;18.80;99.90;;;;;;4966532;28;20424;-64
2022/10/21 08:45:52;;;;;;;32.80;19.17;;;18.80;99.90;;;;;;4943506;28;20071;-63
2022/10/21 08:48:23;;;;;;;25.42;16.50;;;16.30;99.90;;;;;;4951757;28;20099;-63
2022/10/21 08:50:51;;;;;;;32.47;19.50;;;17.10;99.90;;;;;;4950926;28;20038;-63
2022/10/21 08:53:32;;;;;;;32.50;18.48;;;16.60;99.90;;;;;;4944360;28;20030;-64
2022/10/21 08:56:02;;;;;;;26.08;16.10;;;17.60;99.90;;;;;;4952145;29;20469;-64
2022/10/21 08:58:28;;;;;;;26.50;16.80;;;19.00;99.90;;;;;;4946144;28;20208;-63
2022/10/21 09:01:00;;;;;;;24.60;15.25;;;17.40;99.90;;;;;;4953381;28;20043;-63
2022/10/21 09:03:39;;;;;;;24.45;15.55;;;19.30;99.90;;;;;;4943535;29;20045;-63
2022/10/21 09:06:26;;;;;;;26.80;14.95;;;18.20;99.90;;;;;;4942891;28;20501;-65
2022/10/21 09:09:07;;;;;;;27.35;14.93;;;19.00;99.90;;;;;;4938641;28;20102;-64
2022/10/21 09:11:38;;;;;;;20.50;14.27;;;18.30;99.90;;;;;;4971285;28;20062;-64
2022/10/21 09:14:31;;;;;;;24.00;15.23;;;16.70;99.90;;;;;;4954647;28;20077;-64
2022/10/21 09:17:20;;;;;;;25.38;14.60;;;17.80;99.90;;;;;;4960558;28;20051;-63
2022/10/21 09:20:03;;;;;;;26.08;15.30;;;18.50;99.90;;;;;;4942937;28;20579;-63
2022/10/21 09:23:07;;;;;;;25.48;14.25;;;16.90;99.90;;;;;;4941895;29;20062;-64
2022/10/21 09:25:58;;;;;;;25.92;14.70;;;17.60;99.90;;;;;;4939142;28;20093;-64
2022/10/21 09:28:25;;;;;;;25.40;14.80;;;19.30;99.90;;;;;;4938133;28;20062;-64
2022/10/21 09:30:52;;;;;;;23.50;13.88;;;18.90;99.90;;;;;;4957107;28;20035;-63
2022/10/21 09:33:27;;;;;;;18.90;12.88;;;19.60;99.90;;;;;;4938598;29;20046;-63
2022/10/21 09:36:31;;;;;;;20.60;12.68;;;18.90;99.90;;;;;;4950277;28;20086;-64
2022/10/21 09:39:21;;;;;;;20.00;12.25;;;17.50;99.90;;;;;;4956281;28;20059;-63
2022/10/21 09:41:54;;;;;;;17.90;11.90;;;17.90;99.90;;;;;;4946322;28;20393;-63
2022/10/21 09:44:21;;;;;;;17.45;11.55;;;17.90;99.90;;;;;;4971215;28;20042;-63
2022/10/21 09:46:50;;;;;;;25.30;11.98;;;18.50;99.90;;;;;;4971449;28;20047;-63
2022/10/21 09:49:32;;;;;;;19.60;12.20;;;17.20;99.90;;;;;;4954615;28;20058;-63
2022/10/21 09:52:01;;;;;;;22.27;12.80;;;19.50;99.90;;;;;;4962418;28;20604;-65
2022/10/21 09:54:32;;;;;;;16.65;11.85;;;19.70;99.90;;;;;;4962574;28;20054;-64
2022/10/21 09:57:04;;;;;;;15.25;11.23;;;17.10;99.90;;;;;;4950605;28;20062;-64
2022/10/21 09:59:31;;;;;;;18.65;11.93;;;17.50;99.90;;;;;;4970228;28;20055;-64
2022/10/21 10:02:13;;;;;;;21.50;10.20;;;19.60;99.90;;;;;;4947637;28;20114;-64
2022/10/21 10:04:39;;;;;;;17.90;10.73;;;19.20;99.90;;;;;;4962113;28;20039;-64
2022/10/21 10:07:29;;;;;;;21.23;10.10;;;19.70;99.90;;;;;;4946170;28;20047;-65
2022/10/21 10:09:55;;;;;;;23.73;10.80;;;18.90;99.90;;;;;;4936735;28;20099;-64
2022/10/21 10:12:25;;;;;;;13.68;9.77;;;18.30;99.90;;;;;;4954156;28;20070;-64
2022/10/21 10:14:50;;;;;;;15.00;9.43;;;17.10;99.90;;;;;;4953219;28;20042;-64
2022/10/21 10:17:32;;;;;;;19.77;9.77;;;17.20;99.90;;;;;;4955098;28;20051;-64
2022/10/21 10:20:04;;;;;;;17.40;9.15;;;19.70;99.90;;;;;;4955005;28;20077;-65
2022/10/21 10:22:40;;;;;;;15.48;11.05;;;18.20;99.90;;;;;;4962641;28;20053;-64
2022/10/21 10:25:30;;;;;;;17.25;9.13;;;19.80;99.90;;;;;;4971917;28;20082;-64
2022/10/21 10:27:59;;;;;;;20.73;11.35;;;19.80;99.90;;;;;;4959175;28;20405;-64
2022/10/21 10:30:36;;;;;;;13.38;9.32;;;17.40;99.90;;;;;;4945928;28;20049;-66
2022/10/21 10:33:09;;;;;;;19.25;9.05;;;17.80;99.90;;;;;;4954704;28;20047;-61
2022/10/21 10:35:36;;;;;;;14.95;10.15;;;18.80;99.90;;;;;;4966858;28;20031;-65
2022/10/21 10:38:03;;;;;;;16.60;9.43;;;17.70;99.90;;;;;;4954593;28;20049;-65
2022/10/21 10:40:32;;;;;;;17.75;9.73;;;18.20;99.90;;;;;;4952715;28;20485;-64
2022/10/21 10:43:12;;;;;;;17.23;10.02;;;17.30;99.90;;;;;;4967621;28;20049;-64
2022/10/21 10:45:44;;;;;;;13.60;9.98;;;19.40;99.90;;;;;;4965182;28;20105;-64
2022/10/21 10:48:21;;;;;;;14.40;9.55;;;18.80;99.90;;;;;;4946399;28;20046;-64
2022/10/21 10:50:49;;;;;;;17.15;10.52;;;20.00;99.90;;;;;;4951792;28;20054;-64
2022/10/21 10:53:30;;;;;;;18.27;9.52;;;17.60;99.90;;;;;;4930809;28;20043;-65
2022/10/21 10:56:13;;;;;;;20.42;9.13;;;17.90;99.90;;;;;;4969447;28;20097;-64
2022/10/21 10:58:46;;;;;;;18.55;9.45;;;19.70;99.90;;;;;;4949442;28;20121;-64
2022/10/21 11:01:20;;;;;;;14.25;9.48;;;17.70;99.90;;;;;;4973574;28;20050;-64
2022/10/21 11:04:10;;;;;;;16.38;9.68;;;17.50;99.90;;;;;;4949348;28;20035;-64
2022/10/21 11:06:52;;;;;;;14.20;9.80;;;18.60;99.90;;;;;;4944327;28;20073;-64
2022/10/21 11:09:19;;;;;;;17.73;9.60;;;18.40;99.90;;;;;;4952089;28;20503;-64
2022/10/21 11:11:47;;;;;;;17.05;9.63;;;19.70;99.90;;;;;;4943464;28;20058;-65
2022/10/21 11:14:16;;;;;;;15.75;9.38;;;18.20;99.90;;;;;;4963679;28;20047;-64
2022/10/21 11:17:15;;;;;;;19.63;10.15;;;18.00;99.90;;;;;;4958267;28;20050;-64
2022/10/21 11:20:05;;;;;;;17.63;9.10;;;17.70;99.90;;;;;;4961050;28;20035;-64
2022/10/21 11:22:41;;;;;;;17.40;9.38;;;17.70;99.90;;;;;;4967412;28;20109;-64
2022/10/21 11:25:31;;;;;;;11.98;8.93;;;19.80;99.90;;;;;;4949078;28;20038;-64
2022/10/21 11:28:02;;;;;;;14.60;8.85;;;17.70;99.90;;;;;;4944845;28;20555;-64
2022/10/21 11:30:41;;;;;;;16.38;9.07;;;20.20;99.90;;;;;;4972279;28;20528;-64
2022/10/21 11:33:14;;;;;;;12.20;8.38;;;19.10;99.90;;;;;;4953304;28;20519;-64
2022/10/21 11:36:01;;;;;;;14.90;8.05;;;19.00;99.90;;;;;;4955893;28;20051;-64
2022/10/21 11:38:45;;;;;;;18.60;8.88;;;20.40;99.90;;;;;;4957814;28;20078;-64
2022/10/21 11:41:38;;;;;;;15.40;9.52;;;19.50;99.90;;;;;;4945531;28;20065;-66
2022/10/21 11:44:12;;;;;;;14.48;8.35;;;18.10;99.90;;;;;;4956191;28;20046;-64
2022/10/21 11:46:58;;;;;;;14.45;9.02;;;18.20;99.90;;;;;;4956184;28;20042;-65
2022/10/21 11:49:57;;;;;;;16.88;8.52;;;18.30;99.90;;;;;;4963087;28;20061;-64
2022/10/21 11:52:39;;;;;;;14.82;7.57;;;20.30;99.90;;;;;;4974090;28;20066;-64
2022/10/21 11:55:46;;;;;;;18.92;8.02;;;19.70;99.90;;;;;;4942503;28;20105;-65
2022/10/21 11:58:40;;;;;;;18.17;8.32;;;19.50;99.90;;;;;;4914578;29;20067;-65
2022/10/21 12:01:11;;;;;;;15.25;8.18;;;19.00;99.90;;;;;;4911638;29;20059;-65
2022/10/21 12:03:53;;;;;;;12.40;7.90;;;19.40;99.90;;;;;;4942349;28;20058;-65
2022/10/21 12:06:47;;;;;;;18.30;8.25;;;18.20;99.90;;;;;;4937898;29;20093;-64
2022/10/21 12:09:28;;;;;;;16.63;8.30;;;18.70;99.90;;;;;;4943377;29;20047;-64
2022/10/21 12:12:01;;;;;;;13.18;7.72;;;19.70;99.90;;;;;;4947475;28;20035;-64
2022/10/21 12:14:33;;;;;;;13.45;7.90;;;18.40;99.90;;;;;;4951591;28;20043;-64
2022/10/21 12:17:04;;;;;;;13.00;7.35;;;20.90;99.90;;;;;;4970692;28;20054;-64
2022/10/21 12:19:30;;;;;;;18.27;7.43;;;20.50;99.90;;;;;;4947151;28;20050;-65
2022/10/21 12:21:56;;;;;;;15.77;7.90;;;20.90;99.90;;;;;;4949372;28;20134;-64
2022/10/21 12:24:59;;;;;;;12.02;7.05;;;20.00;99.90;;;;;;4962764;28;20038;-64
2022/10/21 12:27:33;;;;;;;13.07;6.75;;;21.10;99.90;;;;;;4953962;28;20042;-64
2022/10/21 12:30:16;;;;;;;11.85;7.15;;;19.90;99.90;;;;;;4950922;28;20043;-65
2022/10/21 12:32:52;;;;;;;13.40;7.38;;;21.10;99.90;;;;;;4947306;28;20077;-65
2022/10/21 12:35:28;;;;;;;14.10;7.40;;;20.80;99.90;;;;;;4951848;28;20157;-65
2022/10/21 12:37:53;;;;;;;15.60;7.40;;;21.10;99.90;;;;;;4938531;28;20477;-66
2022/10/21 12:40:25;;;;;;;12.07;7.35;;;20.60;99.90;;;;;;4939211;29;20093;-64
2022/10/21 12:43:19;;;;;;;19.20;7.93;;;20.90;99.90;;;;;;4965975;28;20042;-65
2022/10/21 12:45:46;;;;;;;13.70;6.57;;;20.00;99.90;;;;;;4946044;28;20043;-65
2022/10/21 12:48:32;;;;;;;19.15;7.22;;;19.70;99.90;;;;;;4932882;28;20032;-65